sensor_id;sensor_type;location;lat;lon;timestamp;pressure;altitude;pressure_sealevel;temperature;humidity
77043;BME280;65975;53.936;27.540;2023-02-24T00:01:19;98726.53;;;-0.58;60.30
77043;BME280;65975;53.936;27.540;2023-02-24T00:03:51;98710.13;;;-0.77;59.62
77043;BME280;65975;53.936;27.540;2023-02-24T00:06:17;98710.34;;;-0.45;59.14
77043;BME280;65975;53.936;27.540;2023-02-24T00:08:43;98686.34;;;-0.47;58.46
77043;BME280;65975;53.936;27.540;2023-02-24T00:11:14;98699.06;;;-0.67;60.38
77043;BME280;65975;53.936;27.540;2023-02-24T00:13:42;98701.84;;;-0.32;59.10
77043;BME280;65975;53.936;27.540;2023-02-24T00:16:16;98688.97;;;-0.32;58.60
77043;BME280;65975;53.936;27.540;2023-02-24T00:18:43;98684.75;;;-0.24;58.76
77043;BME280;65975;53.936;27.540;2023-02-24T00:21:14;98670.78;;;-0.64;59.97
77043;BME280;65975;53.936;27.540;2023-02-24T00:23:44;98588.31;;;-1.05;59.56
77043;BME280;65975;53.936;27.540;2023-02-24T00:26:14;98667.31;;;-0.70;59.91
77043;BME280;65975;53.936;27.540;2023-02-24T00:28:40;98656.34;;;-0.47;60.46
77043;BME280;65975;53.936;27.540;2023-02-24T00:31:14;98677.75;;;-0.45;59.90
77043;BME280;65975;53.936;27.540;2023-02-24T00:33:41;98646.03;;;-0.48;60.55
77043;BME280;65975;53.936;27.540;2023-02-24T00:36:10;98646.06;;;-0.47;60.18
77043;BME280;65975;53.936;27.540;2023-02-24T00:38:38;98630.50;;;-0.69;61.27
77043;BME280;65975;53.936;27.540;2023-02-24T00:41:12;98622.03;;;-0.49;60.62
77043;BME280;65975;53.936;27.540;2023-02-24T00:43:42;98622.81;;;-0.62;61.08
77043;BME280;65975;53.936;27.540;2023-02-24T00:46:16;98603.13;;;-0.57;61.06
77043;BME280;65975;53.936;27.540;2023-02-24T00:48:44;98583.31;;;-0.81;62.09
77043;BME280;65975;53.936;27.540;2023-02-24T00:51:15;98598.84;;;-0.59;61.84
77043;BME280;65975;53.936;27.540;2023-02-24T00:53:42;98578.34;;;-0.38;60.83
77043;BME280;65975;53.936;27.540;2023-02-24T00:56:09;98466.44;;;-1.54;62.42
77043;BME280;65975;53.936;27.540;2023-02-24T00:58:40;98555.84;;;-0.88;63.04
77043;BME280;65975;53.936;27.540;2023-02-24T01:01:15;98558.59;;;-0.54;62.54
77043;BME280;65975;53.936;27.540;2023-02-24T01:03:45;98550.09;;;-0.30;61.48
77043;BME280;65975;53.936;27.540;2023-02-24T01:06:19;98393.75;;;-1.50;62.54
77043;BME280;65975;53.936;27.540;2023-02-24T01:08:46;98520.88;;;-0.60;62.28
77043;BME280;65975;53.936;27.540;2023-02-24T01:11:15;98529.44;;;-0.52;63.36
77043;BME280;65975;53.936;27.540;2023-02-24T01:14:10;98520.00;;;-0.62;63.53
77043;BME280;65975;53.936;27.540;2023-02-24T01:16:38;98516.59;;;-0.53;63.10
77043;BME280;65975;53.936;27.540;2023-02-24T01:19:06;98518.31;;;-0.55;62.46
77043;BME280;65975;53.936;27.540;2023-02-24T01:21:33;98496.91;;;-0.44;62.84
77043;BME280;65975;53.936;27.540;2023-02-24T01:23:58;98493.47;;;-0.53;62.79
77043;BME280;65975;53.936;27.540;2023-02-24T01:26:24;98511.47;;;-0.49;63.71
77043;BME280;65975;53.936;27.540;2023-02-24T01:28:51;98496.91;;;-0.42;63.31
77043;BME280;65975;53.936;27.540;2023-02-24T01:31:16;98463.41;;;-0.72;63.53
77043;BME280;65975;53.936;27.540;2023-02-24T01:33:43;98492.53;;;-0.69;63.85
77043;BME280;65975;53.936;27.540;2023-02-24T01:36:18;98472.88;;;-0.52;63.32
77043;BME280;65975;53.936;27.540;2023-02-24T01:38:45;98394.78;;;-1.02;63.74
77043;BME280;65975;53.936;27.540;2023-02-24T01:41:14;98381.84;;;-1.27;64.28
77043;BME280;65975;53.936;27.540;2023-02-24T01:46:40;98327.91;;;-1.33;64.04
77043;BME280;65975;53.936;27.540;2023-02-24T01:49:09;98465.97;;;-0.74;64.92
77043;BME280;65975;53.936;27.540;2023-02-24T01:51:40;98273.78;;;-1.86;64.91
77043;BME280;65975;53.936;27.540;2023-02-24T01:54:09;98462.53;;;-0.81;65.87
77043;BME280;65975;53.936;27.540;2023-02-24T01:56:37;98447.91;;;-0.94;66.28
77043;BME280;65975;53.936;27.540;2023-02-24T01:59:05;98448.84;;;-0.69;64.89
77043;BME280;65975;53.936;27.540;2023-02-24T02:01:31;98441.13;;;-0.79;65.40
77043;BME280;65975;53.936;27.540;2023-02-24T02:04:15;98451.44;;;-0.58;66.06
77043;BME280;65975;53.936;27.540;2023-02-24T02:06:44;98430.84;;;-0.78;65.87
77043;BME280;65975;53.936;27.540;2023-02-24T02:09:10;98440.38;;;-0.34;64.82
77043;BME280;65975;53.936;27.540;2023-02-24T02:11:39;98430.94;;;-0.22;64.46
77043;BME280;65975;53.936;27.540;2023-02-24T02:14:04;98433.44;;;-0.61;65.84
77043;BME280;65975;53.936;27.540;2023-02-24T02:16:47;98424.91;;;-0.45;65.30
77043;BME280;65975;53.936;27.540;2023-02-24T02:25:15;98404.34;;;-0.37;65.45
77043;BME280;65975;53.936;27.540;2023-02-24T02:31:11;98402.63;;;-0.48;66.20
77043;BME280;65975;53.936;27.540;2023-02-24T02:33:55;98390.63;;;-0.32;66.17
77043;BME280;65975;53.936;27.540;2023-02-24T02:41:36;98364.91;;;-0.41;65.60
77043;BME280;65975;53.936;27.540;2023-02-24T02:44:10;98271.50;;;-0.93;66.23
77043;BME280;65975;53.936;27.540;2023-02-24T02:46:47;98361.47;;;-0.19;65.28
77043;BME280;65975;53.936;27.540;2023-02-24T02:49:38;98351.19;;;-0.19;65.87
77043;BME280;65975;53.936;27.540;2023-02-24T02:52:11;98371.78;;;-0.31;66.04
77043;BME280;65975;53.936;27.540;2023-02-24T02:54:43;98362.34;;;-0.30;66.36
77043;BME280;65975;53.936;27.540;2023-02-24T02:57:18;98357.19;;;-0.15;66.20
77043;BME280;65975;53.936;27.540;2023-02-24T02:59:52;98345.19;;;-0.19;65.72
77043;BME280;65975;53.936;27.540;2023-02-24T03:02:22;98349.44;;;0.09;64.70
77043;BME280;65975;53.936;27.540;2023-02-24T03:04:55;98350.34;;;-0.13;65.90
77043;BME280;65975;53.936;27.540;2023-02-24T03:07:26;98316.91;;;-0.45;66.77
77043;BME280;65975;53.936;27.540;2023-02-24T03:09:58;98340.06;;;-0.34;66.82
77043;BME280;65975;53.936;27.540;2023-02-24T03:12:27;98348.63;;;-0.49;67.74
77043;BME280;65975;53.936;27.540;2023-02-24T03:15:01;98328.91;;;-0.41;67.47
77043;BME280;65975;53.936;27.540;2023-02-24T03:17:32;98319.50;;;-0.53;68.19
77043;BME280;65975;53.936;27.540;2023-02-24T03:20:04;98312.59;;;-0.11;66.63
77043;BME280;65975;53.936;27.540;2023-02-24T03:23:06;98307.44;;;-0.10;66.28
77043;BME280;65975;53.936;27.540;2023-02-24T03:25:41;98273.19;;;-0.30;67.05
77043;BME280;65975;53.936;27.540;2023-02-24T03:28:18;98304.88;;;-0.11;66.19
77043;BME280;65975;53.936;27.540;2023-02-24T03:30:53;98309.16;;;-0.09;66.74
77043;BME280;65975;53.936;27.540;2023-02-24T03:33:28;98297.09;;;0.13;65.87
77043;BME280;65975;53.936;27.540;2023-02-24T03:35:55;98204.66;;;-0.61;66.76
77043;BME280;65975;53.936;27.540;2023-02-24T03:38:27;98292.84;;;0.05;66.99
77043;BME280;65975;53.936;27.540;2023-02-24T03:40:55;98113.06;;;-1.03;66.43
77043;BME280;65975;53.936;27.540;2023-02-24T03:43:29;98287.66;;;0.15;65.95
77043;BME280;65975;53.936;27.540;2023-02-24T03:45:56;98276.53;;;0.01;66.76
77043;BME280;65975;53.936;27.540;2023-02-24T03:48:24;98270.53;;;0.11;66.13
77043;BME280;65975;53.936;27.540;2023-02-24T03:50:50;98261.09;;;0.09;66.82
77043;BME280;65975;53.936;27.540;2023-02-24T03:59:32;98239.75;;;-0.30;68.72
77043;BME280;65975;53.936;27.540;2023-02-24T04:01:57;98238.88;;;-0.14;69.82
77043;BME280;65975;53.936;27.540;2023-02-24T04:06:59;98226.03;;;-0.38;71.06
77043;BME280;65975;53.936;27.540;2023-02-24T04:09:49;98224.31;;;-0.30;71.32
77043;BME280;65975;53.936;27.540;2023-02-24T04:12:36;98182.34;;;-0.39;71.55
77043;BME280;65975;53.936;27.540;2023-02-24T04:15:29;98222.56;;;-0.07;70.71
77043;BME280;65975;53.936;27.540;2023-02-24T04:17:59;98210.44;;;0.15;70.74
77043;BME280;65975;53.936;27.540;2023-02-24T04:20:30;98203.72;;;-0.15;70.93
77043;BME280;65975;53.936;27.540;2023-02-24T04:23:10;98187.41;;;-0.14;70.90
77043;BME280;65975;53.936;27.540;2023-02-24T04:25:38;98188.28;;;-0.21;71.77
77043;BME280;65975;53.936;27.540;2023-02-24T04:28:07;98181.41;;;-0.16;71.73
77043;BME280;65975;53.936;27.540;2023-02-24T04:30:35;98183.19;;;-0.37;72.94
77043;BME280;65975;53.936;27.540;2023-02-24T04:33:02;98175.44;;;-0.25;72.49
77043;BME280;65975;53.936;27.540;2023-02-24T04:35:28;98174.53;;;-0.08;72.44
77043;BME280;65975;53.936;27.540;2023-02-24T04:37:53;98165.91;;;-0.05;72.13
77043;BME280;65975;53.936;27.540;2023-02-24T04:40:21;98141.13;;;-0.24;72.32
77043;BME280;65975;53.936;27.540;2023-02-24T04:42:51;98153.13;;;-0.20;72.81
77043;BME280;65975;53.936;27.540;2023-02-24T04:45:28;98143.56;;;0.09;72.73
77043;BME280;65975;53.936;27.540;2023-02-24T04:47:56;98133.31;;;0.03;72.33
77043;BME280;65975;53.936;27.540;2023-02-24T04:50:27;98154.81;;;-0.09;71.94
77043;BME280;65975;53.936;27.540;2023-02-24T04:52:56;98138.53;;;-0.17;73.31
77043;BME280;65975;53.936;27.540;2023-02-24T04:55:26;98130.84;;;-0.23;73.28
77043;BME280;65975;53.936;27.540;2023-02-24T04:57:58;98114.59;;;-0.29;72.90
77043;BME280;65975;53.936;27.540;2023-02-24T05:00:24;98130.91;;;-0.44;74.28
77043;BME280;65975;53.936;27.540;2023-02-24T05:02:59;98088.06;;;-0.45;74.58
77043;BME280;65975;53.936;27.540;2023-02-24T05:05:26;98124.06;;;-0.42;74.89
77043;BME280;65975;53.936;27.540;2023-02-24T05:07:57;98119.78;;;-0.45;74.98
77043;BME280;65975;53.936;27.540;2023-02-24T05:10:41;98113.69;;;-0.21;75.23
77043;BME280;65975;53.936;27.540;2023-02-24T05:13:18;98082.88;;;-0.27;74.12
77043;BME280;65975;53.936;27.540;2023-02-24T05:15:45;98063.22;;;-0.46;75.28
77043;BME280;65975;53.936;27.540;2023-02-24T05:18:13;98099.94;;;-0.17;74.86
77043;BME280;65975;53.936;27.540;2023-02-24T05:20:43;98105.22;;;-0.47;76.00
77043;BME280;65975;53.936;27.540;2023-02-24T05:23:33;98091.56;;;-0.60;76.75
77043;BME280;65975;53.936;27.540;2023-02-24T05:26:00;98105.16;;;-0.29;77.24
77043;BME280;65975;53.936;27.540;2023-02-24T05:28:26;98066.66;;;-0.52;77.11
77043;BME280;65975;53.936;27.540;2023-02-24T05:31:15;98069.31;;;-0.65;77.43
77043;BME280;65975;53.936;27.540;2023-02-24T05:33:43;98080.38;;;-0.47;76.77
77043;BME280;65975;53.936;27.540;2023-02-24T05:36:11;98088.97;;;-0.52;76.95
77043;BME280;65975;53.936;27.540;2023-02-24T05:38:39;98060.63;;;-0.45;76.42
77043;BME280;65975;53.936;27.540;2023-02-24T05:41:10;98077.78;;;-0.42;76.98
77043;BME280;65975;53.936;27.540;2023-02-24T05:43:44;98033.31;;;-0.67;76.83
77043;BME280;65975;53.936;27.540;2023-02-24T05:46:14;98034.88;;;-0.38;76.58
77043;BME280;65975;53.936;27.540;2023-02-24T05:48:40;98060.59;;;-0.38;77.17
77043;BME280;65975;53.936;27.540;2023-02-24T05:51:05;98067.44;;;-0.31;76.55
77043;BME280;65975;53.936;27.540;2023-02-24T05:53:37;98038.41;;;-0.55;77.21
77043;BME280;65975;53.936;27.540;2023-02-24T05:56:06;97997.34;;;-0.65;76.84
77043;BME280;65975;53.936;27.540;2023-02-24T05:58:32;98009.28;;;-0.55;76.64
77043;BME280;65975;53.936;27.540;2023-02-24T06:00:57;98046.84;;;-0.31;77.56
77043;BME280;65975;53.936;27.540;2023-02-24T06:03:30;98043.53;;;-0.47;77.44
77043;BME280;65975;53.936;27.540;2023-02-24T06:06:00;98032.38;;;-0.49;78.07
77043;BME280;65975;53.936;27.540;2023-02-24T06:08:33;98037.53;;;-0.48;78.89
77043;BME280;65975;53.936;27.540;2023-02-24T06:11:08;98033.19;;;-0.36;78.57
77043;BME280;65975;53.936;27.540;2023-02-24T06:13:35;98003.34;;;-0.69;79.66
77043;BME280;65975;53.936;27.540;2023-02-24T06:16:01;98022.94;;;-0.52;79.81
77043;BME280;65975;53.936;27.540;2023-02-24T06:18:29;98023.00;;;-0.62;78.95
77043;BME280;65975;53.936;27.540;2023-02-24T06:20:54;98003.22;;;-0.41;79.17
77043;BME280;65975;53.936;27.540;2023-02-24T06:23:19;98011.63;;;-0.19;78.77
77043;BME280;65975;53.936;27.540;2023-02-24T06:25:45;97996.38;;;-0.49;78.48
77043;BME280;65975;53.936;27.540;2023-02-24T06:28:10;98004.84;;;-0.32;79.16
77043;BME280;65975;53.936;27.540;2023-02-24T06:30:36;97975.91;;;-0.67;78.70
77043;BME280;65975;53.936;27.540;2023-02-24T06:33:02;97921.88;;;-0.52;78.97
77043;BME280;65975;53.936;27.540;2023-02-24T06:35:32;97985.06;;;-0.16;78.12
77043;BME280;65975;53.936;27.540;2023-02-24T06:37:57;97980.00;;;-0.30;78.56
77043;BME280;65975;53.936;27.540;2023-02-24T06:40:23;97979.06;;;-0.18;78.54
77043;BME280;65975;53.936;27.540;2023-02-24T06:42:50;97979.22;;;-0.39;78.90
77043;BME280;65975;53.936;27.540;2023-02-24T06:45:20;97968.88;;;-0.38;78.45
77043;BME280;65975;53.936;27.540;2023-02-24T06:47:45;97973.81;;;0.00;77.64
77043;BME280;65975;53.936;27.540;2023-02-24T06:50:16;97960.91;;;0.03;77.36
77043;BME280;65975;53.936;27.540;2023-02-24T06:52:49;97952.38;;;-0.02;77.50
77043;BME280;65975;53.936;27.540;2023-02-24T06:55:15;97949.63;;;0.16;76.23
77043;BME280;65975;53.936;27.540;2023-02-24T06:57:55;97936.66;;;0.27;76.95
77043;BME280;65975;53.936;27.540;2023-02-24T07:00:30;97922.31;;;0.03;76.23
77043;BME280;65975;53.936;27.540;2023-02-24T07:03:12;97906.81;;;0.08;75.91
77043;BME280;65975;53.936;27.540;2023-02-24T07:05:48;97915.25;;;0.23;75.88
77043;BME280;65975;53.936;27.540;2023-02-24T07:08:19;97825.03;;;-0.55;76.79
77043;BME280;65975;53.936;27.540;2023-02-24T07:10:51;97935.81;;;0.26;76.86
77043;BME280;65975;53.936;27.540;2023-02-24T07:13:17;97936.47;;;0.50;76.82
77043;BME280;65975;53.936;27.540;2023-02-24T07:15:43;97937.31;;;0.50;75.63
77043;BME280;65975;53.936;27.540;2023-02-24T07:18:14;97918.16;;;0.75;74.83
77043;BME280;65975;53.936;27.540;2023-02-24T07:20:41;97889.16;;;0.58;75.56
77043;BME280;65975;53.936;27.540;2023-02-24T07:23:10;97915.06;;;0.45;75.97
77043;BME280;65975;53.936;27.540;2023-02-24T07:25:36;97911.72;;;0.33;75.78
77043;BME280;65975;53.936;27.540;2023-02-24T07:28:03;97851.25;;;-0.12;75.77
77043;BME280;65975;53.936;27.540;2023-02-24T07:30:32;97897.91;;;0.39;75.56
77043;BME280;65975;53.936;27.540;2023-02-24T07:32:58;97893.53;;;0.49;75.58
77043;BME280;65975;53.936;27.540;2023-02-24T07:35:24;97826.94;;;0.18;75.36
77043;BME280;65975;53.936;27.540;2023-02-24T07:37:50;97886.44;;;0.70;74.77
77043;BME280;65975;53.936;27.540;2023-02-24T07:40:17;97883.72;;;0.83;75.40
77043;BME280;65975;53.936;27.540;2023-02-24T07:42:47;97820.81;;;0.28;74.97
77043;BME280;65975;53.936;27.540;2023-02-24T07:45:13;97883.34;;;0.39;76.50
77043;BME280;65975;53.936;27.540;2023-02-24T07:47:38;97876.31;;;0.55;76.44
77043;BME280;65975;53.936;27.540;2023-02-24T07:50:06;97727.19;;;-0.38;76.42
77043;BME280;65975;53.936;27.540;2023-02-24T07:52:37;97869.81;;;0.96;75.81
77043;BME280;65975;53.936;27.540;2023-02-24T07:55:03;97835.19;;;0.46;76.63
77043;BME280;65975;53.936;27.540;2023-02-24T07:57:29;97845.22;;;0.70;75.75
77043;BME280;65975;53.936;27.540;2023-02-24T07:59:58;97840.25;;;0.55;76.70
77043;BME280;65975;53.936;27.540;2023-02-24T08:02:25;97786.25;;;0.51;76.04
77043;BME280;65975;53.936;27.540;2023-02-24T08:04:51;97858.06;;;0.72;76.94
77043;BME280;65975;53.936;27.540;2023-02-24T08:07:19;97860.00;;;0.55;77.16
77043;BME280;65975;53.936;27.540;2023-02-24T08:09:54;97873.44;;;0.79;76.57
77043;BME280;65975;53.936;27.540;2023-02-24T08:12:41;97863.66;;;1.04;76.30
77043;BME280;65975;53.936;27.540;2023-02-24T08:15:08;97849.81;;;1.13;76.50
77043;BME280;65975;53.936;27.540;2023-02-24T08:17:42;97835.72;;;0.74;76.58
77043;BME280;65975;53.936;27.540;2023-02-24T08:20:08;97848.94;;;1.14;76.46
77043;BME280;65975;53.936;27.540;2023-02-24T08:22:41;97848.44;;;0.86;76.98
77043;BME280;65975;53.936;27.540;2023-02-24T08:25:09;97712.63;;;0.34;76.86
77043;BME280;65975;53.936;27.540;2023-02-24T08:27:43;97838.63;;;1.15;76.49
77043;BME280;65975;53.936;27.540;2023-02-24T08:30:10;97838.78;;;1.03;76.60
77043;BME280;65975;53.936;27.540;2023-02-24T08:32:48;97821.38;;;1.19;76.56
77043;BME280;65975;53.936;27.540;2023-02-24T08:35:31;97818.50;;;1.37;76.24
77043;BME280;65975;53.936;27.540;2023-02-24T08:40:44;97817.50;;;1.47;76.04
77043;BME280;65975;53.936;27.540;2023-02-24T08:43:28;97813.88;;;1.57;76.37
77043;BME280;65975;53.936;27.540;2023-02-24T08:45:56;97818.56;;;1.36;76.88
77043;BME280;65975;53.936;27.540;2023-02-24T08:48:58;97813.00;;;1.60;76.31
77043;BME280;65975;53.936;27.540;2023-02-24T08:51:26;97819.06;;;1.57;75.90
77043;BME280;65975;53.936;27.540;2023-02-24T08:53:57;97757.00;;;1.13;76.27
77043;BME280;65975;53.936;27.540;2023-02-24T08:56:26;97808.09;;;1.43;76.38
77043;BME280;65975;53.936;27.540;2023-02-24T08:59:00;97805.78;;;1.80;75.49
77043;BME280;65975;53.936;27.540;2023-02-24T09:01:40;97803.75;;;1.48;77.42
77043;BME280;65975;53.936;27.540;2023-02-24T09:04:18;97750.03;;;1.72;76.18
77043;BME280;65975;53.936;27.540;2023-02-24T09:06:47;97791.16;;;1.81;76.20
77043;BME280;65975;53.936;27.540;2023-02-24T09:09:16;97794.59;;;1.80;75.74
77043;BME280;65975;53.936;27.540;2023-02-24T09:11:46;97794.97;;;1.58;76.69
77043;BME280;65975;53.936;27.540;2023-02-24T09:14:16;97787.19;;;2.09;76.15
77043;BME280;65975;53.936;27.540;2023-02-24T09:16:43;97699.66;;;1.51;75.87
77043;BME280;65975;53.936;27.540;2023-02-24T09:22:04;97767.84;;;1.84;76.29
77043;BME280;65975;53.936;27.540;2023-02-24T09:24:41;97770.84;;;2.09;75.89
77043;BME280;65975;53.936;27.540;2023-02-24T09:27:07;97764.91;;;2.47;74.89
77043;BME280;65975;53.936;27.540;2023-02-24T09:29:33;97641.03;;;1.11;76.43
77043;BME280;65975;53.936;27.540;2023-02-24T09:32:04;97758.34;;;1.87;76.61
77043;BME280;65975;53.936;27.540;2023-02-24T09:34:33;97773.41;;;2.10;76.37
77043;BME280;65975;53.936;27.540;2023-02-24T09:37:00;97767.72;;;1.91;76.29
77043;BME280;65975;53.936;27.540;2023-02-24T09:39:36;97751.28;;;1.97;76.62
77043;BME280;65975;53.936;27.540;2023-02-24T09:42:22;97754.88;;;1.88;77.21
77043;BME280;65975;53.936;27.540;2023-02-24T09:44:54;97757.97;;;2.07;76.28
77043;BME280;65975;53.936;27.540;2023-02-24T09:47:37;97749.78;;;2.28;75.55
77043;BME280;65975;53.936;27.540;2023-02-24T09:52:56;97744.81;;;2.61;74.94
77043;BME280;65975;53.936;27.540;2023-02-24T09:55:45;97737.09;;;2.19;76.49
77043;BME280;65975;53.936;27.540;2023-02-24T10:06:30;97718.06;;;2.22;76.85
77043;BME280;65975;53.936;27.540;2023-02-24T10:11:43;97724.69;;;1.93;78.18
77043;BME280;65975;53.936;27.540;2023-02-24T10:14:37;97709.66;;;2.14;77.75
77043;BME280;65975;53.936;27.540;2023-02-24T10:17:16;97702.78;;;2.13;77.67
77043;BME280;65975;53.936;27.540;2023-02-24T10:19:59;97701.59;;;2.27;77.89
77043;BME280;65975;53.936;27.540;2023-02-24T10:22:43;97657.63;;;2.32;76.79
77043;BME280;65975;53.936;27.540;2023-02-24T10:28:18;97688.09;;;2.56;76.87
77043;BME280;65975;53.936;27.540;2023-02-24T10:33:41;97680.75;;;2.38;77.49
77043;BME280;65975;53.936;27.540;2023-02-24T10:36:29;97682.28;;;2.85;76.27
77043;BME280;65975;53.936;27.540;2023-02-24T10:39:23;97679.09;;;2.34;77.34
77043;BME280;65975;53.936;27.540;2023-02-24T10:42:08;97545.66;;;1.96;76.95
77043;BME280;65975;53.936;27.540;2023-02-24T10:44:48;97663.59;;;2.34;77.59
77043;BME280;65975;53.936;27.540;2023-02-24T10:47:28;97668.47;;;2.48;77.38
77043;BME280;65975;53.936;27.540;2023-02-24T10:49:59;97666.75;;;2.47;77.01
77043;BME280;65975;53.936;27.540;2023-02-24T10:58:33;97653.97;;;2.40;77.95
77043;BME280;65975;53.936;27.540;2023-02-24T11:01:18;97654.63;;;2.50;77.67
77043;BME280;65975;53.936;27.540;2023-02-24T11:04:01;97648.66;;;2.85;76.48
77043;BME280;65975;53.936;27.540;2023-02-24T11:06:47;97643.56;;;2.82;76.52
77043;BME280;65975;53.936;27.540;2023-02-24T11:09:24;97640.63;;;2.60;77.50
77043;BME280;65975;53.936;27.540;2023-02-24T11:12:10;97644.63;;;2.35;78.17
77043;BME280;65975;53.936;27.540;2023-02-24T11:15:02;97642.03;;;2.73;77.02
77043;BME280;65975;53.936;27.540;2023-02-24T11:17:51;97620.44;;;2.39;77.29
77043;BME280;65975;53.936;27.540;2023-02-24T11:22:51;97613.91;;;2.61;77.02
77043;BME280;65975;53.936;27.540;2023-02-24T11:27:45;97618.22;;;2.61;77.40
77043;BME280;65975;53.936;27.540;2023-02-24T11:30:23;97622.03;;;2.81;77.51
77043;BME280;65975;53.936;27.540;2023-02-24T11:38:34;97610.56;;;2.56;78.02
77043;BME280;65975;53.936;27.540;2023-02-24T11:41:32;97614.72;;;2.63;78.25
77043;BME280;65975;53.936;27.540;2023-02-24T11:44:08;97613.19;;;2.92;76.88
77043;BME280;65975;53.936;27.540;2023-02-24T11:46:42;97592.13;;;2.71;77.79
77043;BME280;65975;53.936;27.540;2023-02-24T11:51:48;97603.81;;;3.20;76.67
77043;BME280;65975;53.936;27.540;2023-02-24T11:54:14;97601.47;;;2.77;77.59
77043;BME280;65975;53.936;27.540;2023-02-24T11:56:46;97599.69;;;2.79;77.81
77043;BME280;65975;53.936;27.540;2023-02-24T11:59:48;97593.16;;;2.64;78.20
77043;BME280;65975;53.936;27.540;2023-02-24T12:04:58;97588.84;;;2.65;78.58
77043;BME280;65975;53.936;27.540;2023-02-24T12:07:38;97586.06;;;3.06;78.21
77043;BME280;65975;53.936;27.540;2023-02-24T12:13:11;97585.47;;;2.26;80.72
77043;BME280;65975;53.936;27.540;2023-02-24T12:15:45;97578.66;;;2.22;81.25
77043;BME280;65975;53.936;27.540;2023-02-24T12:20:56;97574.84;;;2.73;79.40
77043;BME280;65975;53.936;27.540;2023-02-24T12:23:27;97578.31;;;2.72;80.21
77043;BME280;65975;53.936;27.540;2023-02-24T12:26:22;97573.84;;;2.79;78.88
77043;BME280;65975;53.936;27.540;2023-02-24T12:29:14;97567.75;;;2.81;79.01
77043;BME280;65975;53.936;27.540;2023-02-24T12:37:45;97550.31;;;2.56;79.72
77043;BME280;65975;53.936;27.540;2023-02-24T12:56:25;97534.13;;;3.15;77.91
77043;BME280;65975;53.936;27.540;2023-02-24T12:58:58;97510.31;;;3.04;78.39
77043;BME280;65975;53.936;27.540;2023-02-24T13:01:50;97536.50;;;2.91;79.20
77043;BME280;65975;53.936;27.540;2023-02-24T13:09:39;97531.28;;;3.25;77.96
77043;BME280;65975;53.936;27.540;2023-02-24T13:12:13;97523.31;;;3.32;77.71
77043;BME280;65975;53.936;27.540;2023-02-24T13:14:40;97518.41;;;3.23;77.61
77043;BME280;65975;53.936;27.540;2023-02-24T13:19:37;97515.09;;;3.49;77.30
77043;BME280;65975;53.936;27.540;2023-02-24T13:24:43;97490.97;;;3.17;77.83
77043;BME280;65975;53.936;27.540;2023-02-24T13:27:31;97512.22;;;3.29;77.77
77043;BME280;65975;53.936;27.540;2023-02-24T13:30:03;97498.44;;;2.97;79.48
77043;BME280;65975;53.936;27.540;2023-02-24T13:32:37;97511.31;;;3.30;78.42
77043;BME280;65975;53.936;27.540;2023-02-24T13:37:46;97512.38;;;3.22;78.55
77043;BME280;65975;53.936;27.540;2023-02-24T13:42:56;97506.50;;;3.17;78.80
77043;BME280;65975;53.936;27.540;2023-02-24T13:45:38;97504.91;;;3.12;79.00
77043;BME280;65975;53.936;27.540;2023-02-24T13:51:12;97499.00;;;3.38;78.68
77043;BME280;65975;53.936;27.540;2023-02-24T14:02:05;97488.09;;;3.28;79.17
77043;BME280;65975;53.936;27.540;2023-02-24T14:04:37;97398.34;;;2.71;79.04
77043;BME280;65975;53.936;27.540;2023-02-24T14:07:10;97498.16;;;3.06;79.78
77043;BME280;65975;53.936;27.540;2023-02-24T14:09:43;97479.63;;;3.23;79.40
77043;BME280;65975;53.936;27.540;2023-02-24T14:12:13;97491.69;;;3.22;79.57
77043;BME280;65975;53.936;27.540;2023-02-24T14:14:42;97486.03;;;3.08;79.90
77043;BME280;65975;53.936;27.540;2023-02-24T14:19:45;97490.06;;;2.88;81.02
77043;BME280;65975;53.936;27.540;2023-02-24T14:22:18;97488.88;;;2.99;81.02
77043;BME280;65975;53.936;27.540;2023-02-24T14:24:45;97483.09;;;3.22;80.49
77043;BME280;65975;53.936;27.540;2023-02-24T14:27:23;97473.00;;;3.11;80.59
77043;BME280;65975;53.936;27.540;2023-02-24T14:29:50;97476.44;;;3.12;81.05
77043;BME280;65975;53.936;27.540;2023-02-24T14:32:22;97479.63;;;3.23;80.24
77043;BME280;65975;53.936;27.540;2023-02-24T14:34:48;97437.13;;;3.01;80.84
77043;BME280;65975;53.936;27.540;2023-02-24T14:37:14;97480.34;;;2.97;81.27
77043;BME280;65975;53.936;27.540;2023-02-24T14:40:01;97475.97;;;3.30;80.82
77043;BME280;65975;53.936;27.540;2023-02-24T14:42:30;97478.44;;;3.33;80.38
77043;BME280;65975;53.936;27.540;2023-02-24T14:44:57;97468.72;;;3.41;80.82
77043;BME280;65975;53.936;27.540;2023-02-24T14:47:25;97463.69;;;3.66;79.13
77043;BME280;65975;53.936;27.540;2023-02-24T14:50:00;97467.72;;;3.47;80.28
77043;BME280;65975;53.936;27.540;2023-02-24T14:52:35;97469.84;;;3.62;79.40
77043;BME280;65975;53.936;27.540;2023-02-24T14:55:21;97446.97;;;3.76;78.49
77043;BME280;65975;53.936;27.540;2023-02-24T14:58:25;97463.47;;;3.74;79.52
77043;BME280;65975;53.936;27.540;2023-02-24T15:01:02;97453.69;;;3.54;80.06
77043;BME280;65975;53.936;27.540;2023-02-24T15:03:36;97454.47;;;3.28;80.87
77043;BME280;65975;53.936;27.540;2023-02-24T15:06:13;97460.53;;;3.27;81.46
77043;BME280;65975;53.936;27.540;2023-02-24T15:08:45;97450.22;;;3.26;81.98
77043;BME280;65975;53.936;27.540;2023-02-24T15:13:45;97449.84;;;3.38;81.27
77043;BME280;65975;53.936;27.540;2023-02-24T15:16:28;97453.88;;;3.48;80.34
77043;BME280;65975;53.936;27.540;2023-02-24T15:18:58;97452.94;;;3.50;80.61
77043;BME280;65975;53.936;27.540;2023-02-24T15:21:32;97449.75;;;3.42;81.46
77043;BME280;65975;53.936;27.540;2023-02-24T15:24:03;97447.44;;;3.32;81.75
77043;BME280;65975;53.936;27.540;2023-02-24T15:26:41;97451.38;;;3.45;81.25
77043;BME280;65975;53.936;27.540;2023-02-24T15:29:18;97445.81;;;3.29;81.71
77043;BME280;65975;53.936;27.540;2023-02-24T15:31:48;97450.84;;;3.34;81.52
77043;BME280;65975;53.936;27.540;2023-02-24T15:34:19;97449.19;;;3.31;82.25
77043;BME280;65975;53.936;27.540;2023-02-24T15:36:46;97455.75;;;3.43;81.86